createdAt,value
2019-02-28T00:00:06.544Z,3.90
2019-02-28T00:02:34.036Z,3.90
2019-02-28T00:05:05.803Z,3.80
2019-02-28T00:07:30.730Z,3.80
2019-02-28T00:09:58.442Z,3.90
2019-02-28T00:12:26.071Z,3.90
2019-02-28T00:14:53.462Z,3.90
2019-02-28T00:17:20.824Z,3.90
2019-02-28T00:19:48.263Z,3.90
2019-02-28T00:22:15.690Z,3.90
2019-02-28T00:24:43.150Z,3.90
2019-02-28T00:27:10.503Z,3.80
2019-02-28T00:29:37.985Z,3.90
2019-02-28T00:32:05.445Z,3.80
2019-02-28T00:34:32.915Z,3.80
2019-02-28T00:37:00.341Z,3.80
2019-02-28T00:39:27.750Z,3.80
2019-02-28T00:41:55.180Z,3.70
2019-02-28T00:44:22.615Z,3.60
2019-02-28T00:46:50.027Z,3.60
2019-02-28T00:49:17.458Z,3.60
2019-02-28T00:51:45.179Z,3.50
2019-02-28T00:54:12.788Z,3.50
2019-02-28T00:56:40.202Z,3.40
2019-02-28T00:59:07.559Z,3.40
2019-02-28T01:01:34.914Z,3.40
2019-02-28T01:04:02.264Z,3.40
2019-02-28T01:06:29.711Z,3.40
2019-02-28T01:08:57.207Z,3.30
2019-02-28T01:11:24.658Z,3.40
2019-02-28T01:13:52.032Z,3.40
2019-02-28T01:16:20.122Z,3.30
2019-02-28T01:18:47.503Z,3.30
2019-02-28T01:21:14.991Z,3.30
2019-02-28T01:23:42.470Z,3.30
2019-02-28T01:26:11.708Z,3.30
2019-02-28T01:28:39.592Z,3.30
2019-02-28T01:31:07.117Z,3.30
2019-02-28T01:33:34.772Z,3.30
2019-02-28T01:36:02.214Z,3.30
2019-02-28T01:38:29.588Z,3.20
2019-02-28T01:40:57.291Z,3.30
2019-02-28T01:43:28.497Z,3.20
2019-02-28T01:45:54.153Z,3.20
2019-02-28T01:48:22.675Z,3.20
2019-02-28T01:50:50.672Z,3.20
2019-02-28T01:53:19.513Z,3.20
2019-02-28T01:55:47.100Z,3.20
2019-02-28T01:58:16.888Z,3.20
2019-02-28T02:00:44.767Z,3.20
2019-02-28T02:03:12.427Z,3.20
2019-02-28T02:05:40.401Z,3.20
2019-02-28T02:08:07.920Z,3.20
2019-02-28T02:10:35.603Z,3.20
2019-02-28T02:13:03.442Z,3.20
2019-02-28T02:15:31.907Z,3.30
2019-02-28T02:17:59.413Z,3.30
2019-02-28T02:20:26.986Z,3.40
2019-02-28T02:22:54.564Z,3.50
2019-02-28T02:25:21.954Z,3.50
2019-02-28T02:27:52.825Z,3.40
2019-02-28T02:30:20.012Z,3.40
2019-02-28T02:32:47.482Z,3.40
2019-02-28T02:35:15.064Z,3.40
2019-02-28T02:37:42.554Z,3.30
2019-02-28T02:40:10.490Z,3.30
2019-02-28T02:42:37.961Z,3.30
2019-02-28T02:45:06.739Z,3.30
2019-02-28T02:47:34.213Z,3.20
2019-02-28T02:50:01.603Z,3.20
2019-02-28T02:52:30.538Z,3.20
2019-02-28T02:54:58.048Z,3.10
2019-02-28T02:57:25.452Z,3.00
2019-02-28T02:59:53.169Z,3.00
2019-02-28T03:02:20.649Z,2.90
2019-02-28T03:04:48.017Z,2.90
2019-02-28T03:07:23.014Z,2.80
2019-02-28T03:09:44.894Z,2.80
2019-02-28T03:12:12.359Z,2.70
2019-02-28T03:14:39.767Z,2.70
2019-02-28T03:17:11.507Z,2.70
2019-02-28T03:19:36.431Z,2.60
2019-02-28T03:22:03.889Z,2.60
2019-02-28T03:24:31.424Z,2.60
2019-02-28T03:26:58.865Z,2.60
2019-02-28T03:29:26.266Z,2.60
2019-02-28T03:31:56.593Z,2.60
2019-02-28T03:34:22.850Z,2.60
2019-02-28T03:36:55.454Z,2.60
2019-02-28T03:39:24.115Z,2.70
2019-02-28T03:41:52.949Z,2.90
2019-02-28T03:44:21.384Z,3.00
2019-02-28T03:46:47.981Z,3.10
2019-02-28T03:49:15.455Z,3.20
2019-02-28T03:51:42.774Z,3.40
2019-02-28T03:54:10.258Z,3.50
2019-02-28T03:56:37.698Z,3.50
2019-02-28T03:59:05.169Z,3.50
2019-02-28T04:01:32.506Z,3.50
2019-02-28T04:04:00.008Z,3.50
2019-02-28T04:06:27.333Z,3.50
2019-02-28T04:08:54.764Z,3.40
2019-02-28T04:11:22.198Z,3.40
2019-02-28T04:13:52.435Z,3.30
2019-02-28T04:16:19.018Z,3.30
2019-02-28T04:18:47.578Z,3.20
2019-02-28T04:21:15.174Z,3.20
2019-02-28T04:23:42.560Z,3.20
2019-02-28T04:26:10.007Z,3.10
2019-02-28T04:28:37.314Z,3.10
2019-02-28T04:31:04.935Z,3.00
2019-02-28T04:33:37.526Z,3.00
2019-02-28T04:36:01.711Z,3.00
2019-02-28T04:38:29.153Z,3.00
2019-02-28T04:40:58.851Z,3.20
2019-02-28T04:43:25.796Z,3.30
2019-02-28T04:45:53.385Z,3.50
2019-02-28T04:48:20.942Z,3.70
2019-02-28T04:50:48.389Z,3.80
2019-02-28T04:53:18.880Z,3.90
2019-02-28T04:55:45.828Z,3.80
2019-02-28T04:58:13.264Z,3.60
2019-02-28T05:00:40.725Z,3.50
2019-02-28T05:03:08.158Z,3.40
2019-02-28T05:05:35.943Z,3.40
2019-02-28T05:08:05.729Z,3.30
2019-02-28T05:10:33.062Z,3.20
2019-02-28T05:13:00.839Z,3.10
2019-02-28T05:15:28.334Z,3.10
2019-02-28T05:17:56.796Z,3.10
2019-02-28T05:20:24.297Z,3.10
2019-02-28T05:22:52.096Z,3.00
2019-02-28T05:25:19.550Z,3.00
2019-02-28T05:27:47.560Z,3.00
2019-02-28T05:30:17.974Z,2.90
2019-02-28T05:32:44.235Z,2.90
2019-02-28T05:35:11.825Z,2.80
2019-02-28T05:37:39.754Z,2.80
2019-02-28T05:40:08.936Z,2.80
2019-02-28T05:42:36.384Z,2.70
2019-02-28T05:45:04.093Z,2.70
2019-02-28T05:47:32.463Z,2.60
2019-02-28T05:50:01.204Z,2.60
2019-02-28T05:52:30.546Z,2.60
2019-02-28T05:54:57.990Z,2.50
2019-02-28T05:57:25.529Z,2.50
2019-02-28T05:59:53.481Z,2.70
2019-02-28T06:02:22.525Z,2.80
2019-02-28T06:04:51.262Z,2.90
2019-02-28T06:07:18.803Z,3.10
2019-02-28T06:09:48.683Z,3.50
2019-02-28T06:12:15.752Z,3.90
2019-02-28T06:14:43.271Z,4.30
2019-02-28T06:17:10.738Z,4.50
2019-02-28T06:19:40.279Z,4.80
2019-02-28T06:22:08.292Z,5.20
2019-02-28T06:24:35.935Z,5.40
2019-02-28T06:27:03.708Z,5.80
2019-02-28T06:29:33.154Z,5.90
2019-02-28T06:32:00.625Z,6.00
2019-02-28T06:34:28.052Z,6.10
2019-02-28T06:36:55.579Z,6.30
2019-02-28T06:39:22.978Z,6.50
2019-02-28T06:41:50.389Z,6.60
2019-02-28T06:44:18.406Z,6.70
2019-02-28T06:46:46.482Z,6.80
2019-02-28T06:49:13.939Z,6.90
2019-02-28T06:51:41.789Z,7.00
2019-02-28T06:54:09.335Z,7.20
2019-02-28T06:56:36.785Z,7.30
2019-02-28T06:59:04.947Z,7.40
2019-02-28T07:01:32.917Z,7.50
2019-02-28T07:04:00.343Z,7.60
2019-02-28T07:06:27.670Z,7.70
2019-02-28T07:08:55.064Z,7.80
2019-02-28T07:11:22.541Z,7.90
2019-02-28T07:13:50.075Z,8.10
2019-02-28T07:16:17.607Z,8.20
2019-02-28T07:18:44.994Z,8.40
2019-02-28T07:21:12.727Z,8.40
2019-02-28T07:23:40.465Z,8.60
2019-02-28T07:26:07.986Z,8.60
2019-02-28T07:28:37.477Z,8.80
2019-02-28T07:31:04.699Z,8.80
2019-02-28T07:33:32.637Z,9.00
2019-02-28T07:36:00.125Z,9.10
2019-02-28T07:38:29.016Z,9.10
2019-02-28T07:40:56.851Z,9.20
2019-02-28T07:43:24.281Z,9.30
2019-02-28T07:45:52.278Z,9.40
2019-02-28T07:48:19.631Z,9.50
2019-02-28T07:50:47.710Z,9.60
2019-02-28T07:53:15.185Z,9.70
2019-02-28T07:55:42.762Z,9.80
2019-02-28T07:58:10.320Z,9.80
2019-02-28T08:00:38.048Z,9.90
2019-02-28T08:03:06.030Z,10.00
2019-02-28T08:05:33.398Z,10.10
2019-02-28T08:08:00.849Z,10.10
2019-02-28T08:10:28.690Z,10.20
2019-02-28T08:12:56.453Z,10.30
2019-02-28T08:15:23.989Z,10.40
2019-02-28T08:17:51.526Z,10.60
2019-02-28T08:20:19.742Z,10.60
2019-02-28T08:22:47.289Z,10.70
2019-02-28T08:25:14.825Z,10.80
2019-02-28T08:27:42.240Z,10.90
2019-02-28T08:30:19.593Z,10.90
2019-02-28T08:32:47.229Z,11.00
2019-02-28T08:35:14.972Z,11.10
2019-02-28T08:37:42.392Z,11.10
2019-02-28T08:40:12.547Z,11.20
2019-02-28T08:42:41.745Z,11.30
2019-02-28T08:45:10.897Z,11.40
2019-02-28T08:47:38.284Z,11.50
2019-02-28T08:50:08.096Z,11.60
2019-02-28T08:52:37.676Z,11.60
2019-02-28T08:55:09.082Z,11.70
2019-02-28T08:57:35.921Z,11.70
2019-02-28T09:00:04.379Z,11.80
2019-02-28T09:02:31.713Z,11.90
2019-02-28T09:04:59.172Z,12.00
2019-02-28T09:07:27.280Z,12.20
2019-02-28T09:09:54.928Z,12.30
2019-02-28T09:12:22.688Z,12.30
2019-02-28T09:14:51.972Z,12.40
2019-02-28T09:17:19.693Z,12.40
2019-02-28T09:19:47.155Z,12.50
2019-02-28T09:22:14.556Z,12.50
2019-02-28T09:24:43.722Z,12.60
2019-02-28T09:27:12.277Z,12.70
2019-02-28T09:29:39.905Z,12.70
2019-02-28T09:32:10.228Z,12.80
2019-02-28T09:34:37.462Z,12.90
2019-02-28T09:37:04.902Z,13.00
2019-02-28T09:39:32.390Z,13.10
2019-02-28T09:41:59.819Z,13.20
2019-02-28T09:44:31.330Z,13.40
2019-02-28T09:46:57.090Z,13.40
2019-02-28T09:49:24.761Z,13.40
2019-02-28T09:51:52.337Z,13.50
2019-02-28T09:54:21.381Z,13.60
2019-02-28T09:56:49.352Z,13.80
2019-02-28T09:59:16.882Z,13.80
2019-02-28T10:01:45.098Z,13.90
2019-02-28T10:04:12.586Z,14.00
2019-02-28T10:06:40.071Z,14.20
2019-02-28T10:09:08.754Z,14.40
2019-02-28T10:11:37.298Z,14.50
2019-02-28T10:14:05.408Z,14.80
2019-02-28T10:16:33.027Z,14.80
2019-02-28T10:19:01.485Z,15.10
2019-02-28T10:21:29.483Z,15.20
2019-02-28T10:23:57.913Z,15.00
2019-02-28T10:26:25.827Z,15.00
2019-02-28T10:28:53.337Z,14.90
2019-02-28T10:31:22.859Z,14.90
2019-02-28T10:33:52.500Z,14.90
2019-02-28T10:36:19.735Z,14.90
2019-02-28T10:38:47.524Z,14.90
2019-02-28T10:41:15.450Z,14.90
2019-02-28T10:43:43.183Z,14.90
2019-02-28T10:46:13.325Z,14.90
2019-02-28T10:48:50.449Z,14.90
2019-02-28T10:51:13.918Z,14.90
2019-02-28T10:53:40.142Z,15.00
2019-02-28T10:56:08.803Z,15.00
2019-02-28T10:58:36.321Z,15.10
2019-02-28T11:01:08.664Z,15.20
2019-02-28T11:03:35.258Z,15.20
2019-02-28T11:06:02.681Z,15.30
2019-02-28T11:08:30.356Z,15.30
2019-02-28T11:10:58.539Z,15.30
2019-02-28T11:13:28.581Z,15.40
2019-02-28T11:15:55.348Z,15.40
2019-02-28T11:18:23.400Z,15.30
2019-02-28T11:20:51.766Z,15.30
2019-02-28T11:23:20.504Z,15.50
2019-02-28T11:25:47.953Z,15.80
2019-02-28T11:28:15.475Z,16.00
2019-02-28T11:30:44.751Z,16.30
2019-02-28T11:33:13.001Z,16.60
2019-02-28T11:35:40.924Z,16.70
2019-02-28T11:38:08.714Z,16.90
2019-02-28T11:40:36.448Z,17.00
2019-02-28T11:43:04.072Z,17.10
2019-02-28T11:45:32.489Z,17.20
2019-02-28T11:48:01.299Z,17.20
2019-02-28T11:50:29.258Z,17.30
2019-02-28T11:53:03.254Z,17.30
2019-02-28T11:55:27.160Z,17.50
2019-02-28T11:57:54.595Z,17.60
2019-02-28T12:00:27.648Z,17.80
2019-02-28T12:02:59.938Z,17.80
2019-02-28T12:05:25.213Z,18.00
2019-02-28T12:07:52.822Z,18.10
2019-02-28T12:10:20.130Z,18.10
2019-02-28T12:12:47.552Z,18.20
2019-02-28T12:15:16.036Z,18.30
2019-02-28T12:17:43.547Z,18.40
2019-02-28T12:20:11.828Z,18.40
2019-02-28T12:22:39.288Z,18.40
2019-02-28T12:25:08.366Z,18.40
2019-02-28T12:27:35.797Z,18.30
2019-02-28T12:30:04.688Z,18.20
2019-02-28T12:32:32.155Z,18.30
2019-02-28T12:35:01.369Z,18.40
2019-02-28T12:37:29.209Z,18.60
2019-02-28T12:39:56.938Z,18.60
2019-02-28T12:42:24.320Z,18.70
2019-02-28T12:44:51.658Z,18.80
2019-02-28T12:47:19.416Z,18.90
2019-02-28T12:49:47.199Z,19.00
2019-02-28T12:52:15.356Z,18.90
2019-02-28T12:54:43.050Z,18.80
2019-02-28T12:57:11.261Z,18.80
2019-02-28T12:59:41.911Z,18.80
2019-02-28T13:02:09.324Z,19.00
2019-02-28T13:04:37.448Z,19.00
2019-02-28T13:07:04.808Z,19.00
2019-02-28T13:09:32.609Z,19.00
2019-02-28T13:12:00.124Z,19.00
2019-02-28T13:14:28.338Z,19.00
2019-02-28T13:16:57.556Z,19.00
2019-02-28T13:19:25.243Z,19.00
2019-02-28T13:21:52.765Z,18.90
2019-02-28T13:24:20.268Z,18.90
2019-02-28T13:26:48.306Z,18.90
2019-02-28T13:29:16.149Z,18.80
2019-02-28T13:31:43.872Z,18.70
2019-02-28T13:34:11.739Z,18.80
2019-02-28T13:36:39.926Z,18.90
2019-02-28T13:39:08.203Z,19.00
2019-02-28T13:41:36.036Z,19.00
2019-02-28T13:44:03.698Z,19.00
2019-02-28T13:46:33.915Z,19.00
2019-02-28T13:49:00.651Z,19.10
2019-02-28T13:51:28.117Z,19.00
2019-02-28T13:53:55.710Z,19.00
2019-02-28T13:56:23.406Z,19.00
2019-02-28T13:58:53.669Z,19.00
2019-02-28T14:01:20.390Z,19.00
2019-02-28T14:03:47.807Z,18.90
2019-02-28T14:06:19.647Z,18.90
2019-02-28T14:08:46.009Z,18.90
2019-02-28T14:11:14.432Z,18.90
2019-02-28T14:13:41.966Z,19.00
2019-02-28T14:16:09.546Z,19.00
2019-02-28T14:18:37.100Z,19.00
2019-02-28T14:21:04.468Z,19.20
2019-02-28T14:23:32.283Z,19.20
2019-02-28T14:25:59.640Z,19.10
2019-02-28T14:28:27.272Z,19.00
2019-02-28T14:30:57.571Z,18.80
2019-02-28T14:33:25.888Z,18.80
2019-02-28T14:35:53.406Z,18.60
2019-02-28T14:38:20.724Z,18.70
2019-02-28T14:40:49.703Z,18.70
2019-02-28T14:43:19.643Z,18.80
2019-02-28T14:45:47.841Z,18.90
2019-02-28T14:48:15.232Z,18.90
2019-02-28T14:50:42.861Z,18.90
2019-02-28T14:53:13.105Z,18.90
2019-02-28T14:55:39.551Z,18.70
2019-02-28T14:58:07.052Z,18.40
2019-02-28T15:00:35.423Z,18.10
2019-02-28T15:03:03.939Z,17.90
2019-02-28T15:05:31.491Z,17.80
2019-02-28T15:07:59.290Z,18.00
2019-02-28T15:10:27.029Z,18.10
2019-02-28T15:12:55.397Z,18.30
2019-02-28T15:15:24.371Z,18.30
2019-02-28T15:17:51.802Z,18.30
2019-02-28T15:20:19.164Z,18.30
2019-02-28T15:22:46.685Z,18.20
2019-02-28T15:25:18.436Z,18.20
2019-02-28T15:27:44.947Z,18.10
2019-02-28T15:30:14.768Z,18.00
2019-02-28T15:32:42.184Z,17.80
2019-02-28T15:35:12.427Z,17.70
2019-02-28T15:37:40.973Z,17.70
2019-02-28T15:40:10.626Z,17.50
2019-02-28T15:42:39.674Z,17.40
2019-02-28T15:45:08.203Z,17.40
2019-02-28T15:47:35.821Z,17.20
2019-02-28T15:50:04.364Z,16.90
2019-02-28T15:52:31.728Z,16.50
2019-02-28T15:55:01.983Z,16.30
2019-02-28T15:57:30.118Z,16.00
2019-02-28T15:59:58.653Z,15.80
2019-02-28T16:02:26.439Z,15.40
2019-02-28T16:04:54.060Z,15.40
2019-02-28T16:07:21.583Z,15.00
2019-02-28T16:09:50.828Z,14.70
2019-02-28T16:12:18.262Z,14.50
2019-02-28T16:14:45.662Z,14.20
2019-02-28T16:17:13.386Z,13.90
2019-02-28T16:19:40.693Z,13.70
2019-02-28T16:22:08.146Z,13.60
2019-02-28T16:24:36.781Z,13.50
2019-02-28T16:27:04.689Z,13.40
2019-02-28T16:29:32.034Z,13.20
2019-02-28T16:31:59.820Z,13.10
2019-02-28T16:34:27.341Z,13.10
2019-02-28T16:36:57.422Z,13.00
2019-02-28T16:39:23.986Z,12.90
2019-02-28T16:41:51.452Z,12.80
2019-02-28T16:44:18.996Z,12.80
2019-02-28T16:46:49.909Z,12.80
2019-02-28T16:49:15.685Z,12.80
2019-02-28T16:51:43.192Z,12.80
2019-02-28T16:54:10.564Z,12.80
2019-02-28T16:56:38.786Z,12.70
2019-02-28T16:59:06.180Z,12.80
2019-02-28T17:01:33.580Z,12.70
2019-02-28T17:04:01.309Z,12.80
2019-02-28T17:06:28.841Z,12.80
2019-02-28T17:09:33.555Z,12.80
2019-02-28T17:12:12.810Z,12.80
2019-02-28T17:14:40.362Z,12.80
2019-02-28T17:17:12.526Z,12.80
2019-02-28T17:19:39.946Z,12.70
2019-02-28T17:22:07.415Z,12.70
2019-02-28T17:24:35.107Z,12.70
2019-02-28T17:27:17.711Z,12.70
2019-02-28T17:30:17.060Z,12.60
2019-02-28T17:32:44.910Z,12.60
2019-02-28T17:35:12.715Z,12.60
2019-02-28T17:37:41.119Z,12.50
2019-02-28T17:40:08.547Z,12.50
2019-02-28T17:42:35.888Z,12.40
2019-02-28T17:45:33.261Z,12.30
2019-02-28T17:48:39.125Z,12.20
2019-02-28T17:51:09.804Z,12.10
2019-02-28T17:53:46.548Z,12.00
2019-02-28T17:56:46.618Z,12.00
2019-02-28T18:00:00.518Z,11.90
2019-02-28T18:03:22.013Z,11.90
2019-02-28T18:06:33.665Z,11.80
2019-02-28T18:09:41.586Z,11.70
2019-02-28T18:12:35.566Z,11.70
2019-02-28T18:15:42.117Z,11.70
2019-02-28T18:18:46.121Z,11.60
2019-02-28T18:21:37.485Z,11.60
2019-02-28T18:24:51.509Z,11.70
2019-02-28T18:28:12.930Z,11.60
2019-02-28T18:31:12.368Z,11.60
2019-02-28T18:33:45.750Z,11.60
2019-02-28T18:36:15.499Z,11.60
2019-02-28T18:38:43.136Z,11.70
2019-02-28T18:41:10.810Z,11.70
2019-02-28T18:43:40.358Z,11.70
2019-02-28T18:46:07.932Z,11.70
2019-02-28T18:48:35.486Z,11.70
2019-02-28T18:51:03.399Z,11.60
2019-02-28T18:53:31.049Z,11.60
2019-02-28T18:55:58.551Z,11.70
2019-02-28T18:58:26.392Z,11.70
2019-02-28T19:00:54.172Z,11.50
2019-02-28T19:03:22.159Z,11.50
2019-02-28T19:05:49.744Z,11.60
2019-02-28T19:08:17.202Z,11.60
2019-02-28T19:10:44.685Z,11.50
2019-02-28T19:13:13.009Z,11.40
2019-02-28T19:15:40.398Z,11.40
2019-02-28T19:18:08.492Z,11.40
2019-02-28T19:20:36.176Z,11.40
2019-02-28T19:23:03.717Z,11.30
2019-02-28T19:25:31.392Z,11.30
2019-02-28T19:27:59.147Z,11.30
2019-02-28T19:30:27.029Z,11.20
2019-02-28T19:32:54.691Z,11.20
2019-02-28T19:35:22.304Z,11.20
2019-02-28T19:37:49.737Z,11.10
2019-02-28T19:40:17.249Z,11.10
2019-02-28T19:42:44.729Z,11.10
2019-02-28T19:45:12.808Z,11.10
2019-02-28T19:47:40.331Z,11.10
2019-02-28T19:50:08.908Z,11.10
2019-02-28T19:52:36.443Z,11.10
2019-02-28T19:55:04.420Z,11.10
2019-02-28T19:57:32.675Z,11.10
2019-02-28T20:00:00.374Z,11.10
2019-02-28T20:02:27.797Z,11.10
2019-02-28T20:04:55.403Z,11.10
2019-02-28T20:07:23.463Z,11.10
2019-02-28T20:09:51.136Z,11.10
2019-02-28T20:12:18.613Z,11.10
2019-02-28T20:14:46.521Z,11.10
2019-02-28T20:17:14.265Z,11.20
2019-02-28T20:19:41.650Z,11.10
2019-02-28T20:22:09.352Z,11.10
2019-02-28T20:24:37.018Z,11.10
2019-02-28T20:27:04.510Z,11.10
2019-02-28T20:29:32.191Z,11.10
2019-02-28T20:31:59.753Z,11.10
2019-02-28T20:34:29.106Z,11.20
2019-02-28T20:36:58.030Z,11.20
2019-02-28T20:39:26.236Z,11.10
2019-02-28T20:41:54.501Z,11.20
2019-02-28T20:44:22.179Z,11.10
2019-02-28T20:46:49.579Z,11.10
2019-02-28T20:49:17.060Z,11.10
2019-02-28T20:51:54.634Z,11.00
2019-02-28T20:54:14.543Z,11.00
2019-02-28T20:56:42.152Z,11.10
2019-02-28T20:59:10.159Z,11.10
2019-02-28T21:01:38.147Z,11.10
2019-02-28T21:04:05.795Z,11.00
2019-02-28T21:06:33.487Z,11.10
2019-02-28T21:09:01.147Z,11.00
2019-02-28T21:11:28.586Z,11.00
2019-02-28T21:13:56.363Z,11.00
2019-02-28T21:16:23.834Z,11.00
2019-02-28T21:18:51.332Z,11.00
2019-02-28T21:21:18.792Z,11.00
2019-02-28T21:23:46.602Z,11.00
2019-02-28T21:26:14.422Z,11.00
2019-02-28T21:28:41.875Z,11.00
2019-02-28T21:31:09.322Z,10.90
2019-02-28T21:33:36.742Z,10.90
2019-02-28T21:36:04.204Z,10.90
2019-02-28T21:38:32.010Z,10.80
2019-02-28T21:44:29.885Z,10.80
2019-02-28T21:46:57.920Z,10.80
2019-02-28T21:49:25.309Z,10.80
2019-02-28T21:51:53.669Z,10.80
2019-02-28T21:54:21.135Z,10.80
2019-02-28T21:56:48.525Z,10.70
2019-02-28T21:59:16.461Z,10.70
2019-02-28T22:01:44.076Z,10.70
2019-02-28T22:04:11.473Z,10.70
2019-02-28T22:06:38.873Z,10.70
2019-02-28T22:09:07.662Z,10.70
2019-02-28T22:11:35.202Z,10.70
2019-02-28T22:14:02.608Z,10.80
2019-02-28T22:16:29.927Z,10.80
2019-02-28T22:18:58.309Z,10.80
2019-02-28T22:21:26.121Z,10.80
2019-02-28T22:23:53.796Z,10.80
2019-02-28T22:26:21.253Z,10.80
2019-02-28T22:28:48.954Z,10.70
2019-02-28T22:31:45.640Z,10.60
2019-02-28T22:34:23.032Z,10.50
2019-02-28T22:36:50.499Z,10.40
2019-02-28T22:39:17.947Z,10.40
2019-02-28T22:41:45.718Z,10.30
2019-02-28T22:44:13.639Z,10.30
2019-02-28T22:46:41.099Z,10.30
2019-02-28T22:49:08.816Z,10.30
2019-02-28T22:51:36.249Z,10.20
2019-02-28T22:54:03.790Z,10.20
2019-02-28T22:56:31.685Z,10.20
2019-02-28T22:58:59.813Z,10.10
2019-02-28T23:01:27.450Z,10.10
2019-02-28T23:03:55.348Z,10.10
2019-02-28T23:06:22.796Z,10.10
2019-02-28T23:08:50.205Z,10.10
2019-02-28T23:11:18.107Z,10.10
2019-02-28T23:13:45.479Z,10.00
2019-02-28T23:16:12.836Z,10.00
2019-02-28T23:18:40.129Z,10.00
2019-02-28T23:21:07.800Z,10.00
2019-02-28T23:23:35.748Z,10.00
2019-02-28T23:26:06.486Z,10.00
2019-02-28T23:28:36.110Z,10.00
2019-02-28T23:31:45.446Z,9.90
2019-02-28T23:34:18.699Z,9.90
2019-02-28T23:36:46.155Z,9.80
2019-02-28T23:39:13.598Z,9.80
2019-02-28T23:41:41.357Z,9.90
2019-02-28T23:44:08.744Z,9.90
2019-02-28T23:46:36.240Z,9.80
2019-02-28T23:49:03.691Z,9.90
2019-02-28T23:51:31.151Z,9.90
2019-02-28T23:53:58.587Z,9.90
2019-02-28T23:56:26.000Z,9.90
2019-02-28T23:58:53.482Z,9.90
